Time;durP1;ratioP1;P1;durP2;ratioP2;P2;SDS_P1;SDS_P2;PMS_P1;PMS_P2;Temp;Humidity;BMP_temperature;BMP_pressure;BME280_temperature;BME280_humidity;BME280_pressure;Samples;Min_cycle;Max_cycle;Signal;HPM_P1;HPM_P2
2021/04/20 00:01:50;;;;;;;26.68;12.93;;;;;;;2.80;56.75;99725.56;1692075;83;20995;-65
2021/04/20 00:04:18;;;;;;;23.32;12.10;;;;;;;2.84;56.97;99727.23;1703379;82;21164;-65
2021/04/20 00:06:45;;;;;;;22.07;12.05;;;;;;;2.87;56.91;99724.17;1694364;82;21122;-64
2021/04/20 00:09:12;;;;;;;21.10;11.33;;;;;;;2.91;57.08;99716.81;1696720;82;21018;-64
2021/04/20 00:11:40;;;;;;;25.48;13.83;;;;;;;2.96;57.09;99723.61;1694465;82;23745;-65
2021/04/20 00:14:09;;;;;;;;;;;;;;;2.96;57.17;99715.88;1709779;82;21046;-64
2021/04/20 00:16:36;;;;;;;37.98;19.15;;;;;;;2.98;57.38;99718.00;1705498;82;20493;-65
2021/04/20 00:19:08;;;;;;;32.05;18.50;;;;;;;2.89;57.30;99717.27;1714280;82;21025;-65
2021/04/20 00:21:36;;;;;;;39.50;18.42;;;;;;;2.76;57.36;99715.75;1691720;83;20990;-64
2021/04/20 00:24:04;;;;;;;37.73;19.77;;;;;;;2.62;57.42;99717.25;1687157;82;21266;-65
2021/04/20 00:26:31;;;;;;;37.85;21.27;;;;;;;2.52;57.51;99704.10;1669916;83;21013;-64
2021/04/20 00:28:58;;;;;;;33.50;18.70;;;;;;;2.48;57.63;99704.16;1703298;82;21167;-65
2021/04/20 00:31:25;;;;;;;31.27;17.15;;;;;;;2.44;57.71;99710.64;1693807;82;21137;-65
2021/04/20 00:33:52;;;;;;;31.23;17.00;;;;;;;2.42;57.78;99716.70;1692857;82;21030;-65
2021/04/20 00:36:19;;;;;;;33.55;15.78;;;;;;;2.38;57.90;99710.74;1705852;82;22364;-65
2021/04/20 00:38:46;;;;;;;29.63;15.72;;;;;;;2.35;57.99;99705.64;1704493;82;21066;-65
2021/04/20 00:41:14;;;;;;;32.58;14.98;;;;;;;2.33;58.09;99704.80;1702559;82;21552;-65
2021/04/20 00:43:47;;;;;;;27.65;15.18;;;;;;;2.33;58.22;99703.51;1709525;82;21015;-65
2021/04/20 00:46:18;;;;;;;28.90;14.83;;;;;;;2.34;58.33;99709.06;1708523;82;21029;-65
2021/04/20 00:48:46;;;;;;;26.85;16.12;;;;;;;2.30;58.35;99698.40;1710443;82;22235;-65
2021/04/20 00:51:14;;;;;;;28.07;16.60;;;;;;;2.28;58.46;99704.00;1708174;82;20977;-65
2021/04/20 00:53:41;;;;;;;26.60;15.65;;;;;;;2.27;58.47;99701.02;1708737;82;21052;-65
2021/04/20 00:56:08;;;;;;;;;;;;;;;2.30;58.61;99703.96;1709502;82;21155;-65
2021/04/20 00:58:35;;;;;;;35.73;16.80;;;;;;;2.31;58.95;99706.53;1713946;82;20294;-65
2021/04/20 01:01:04;;;;;;;31.17;19.12;;;;;;;2.31;58.80;99700.09;1723319;81;21158;-65
2021/04/20 01:03:31;;;;;;;35.20;20.30;;;;;;;2.33;58.81;99704.80;1721114;81;21531;-64
2021/04/20 01:06:00;;;;;;;34.85;20.27;;;;;;;2.32;58.93;99701.78;1716167;81;25377;-65
2021/04/20 01:08:28;;;;;;;38.78;18.73;;;;;;;2.31;59.04;99697.95;1711896;81;21075;-64
2021/04/20 01:10:58;;;;;;;30.00;17.70;;;;;;;2.30;59.14;99686.80;1728006;82;21108;-65
2021/04/20 01:13:31;;;;;;;39.03;18.52;;;;;;;2.26;59.17;99687.70;1720550;82;21549;-64
2021/04/20 01:15:59;;;;;;;42.62;20.50;;;;;;;2.20;59.21;99685.22;1721737;82;21103;-65
2021/04/20 01:18:32;;;;;;;34.00;18.77;;;;;;;2.17;59.30;99678.83;1725025;82;28200;-64
2021/04/20 01:21:10;;;;;;;40.92;19.73;;;;;;;2.13;59.34;99682.30;1720521;82;21567;-64
2021/04/20 01:24:01;;;;;;;39.20;19.70;;;;;;;2.08;59.53;99686.24;1721697;82;21524;-65
2021/04/20 01:26:32;;;;;;;40.15;21.10;;;;;;;2.00;59.56;99676.03;1725624;82;21220;-64
2021/04/20 01:29:00;;;;;;;39.83;20.30;;;;;;;1.95;59.67;99677.81;1723879;82;20970;-65
2021/04/20 01:31:30;;;;;;;40.75;20.23;;;;;;;1.93;59.80;99677.00;1717131;81;21511;-64
2021/04/20 01:33:57;;;;;;;35.65;20.15;;;;;;;1.91;59.87;99680.03;1727438;82;21511;-65
2021/04/20 01:36:26;;;;;;;41.77;20.05;;;;;;;1.87;59.96;99671.91;1724715;82;20989;-64
2021/04/20 01:38:55;;;;;;;41.95;21.52;;;;;;;1.86;60.01;99679.23;1721764;82;21382;-64
2021/04/20 01:41:25;;;;;;;35.78;18.32;;;;;;;1.87;60.05;99683.94;1727450;81;21077;-64
2021/04/20 01:43:55;;;;;;;37.83;18.35;;;;;;;1.83;60.10;99681.84;1722946;82;21062;-64
2021/04/20 01:46:23;;;;;;;36.00;19.50;;;;;;;1.81;60.19;99681.44;1728352;82;21007;-64
2021/04/20 01:48:50;;;;;;;40.40;18.62;;;;;;;1.81;60.33;99676.30;1727113;82;21931;-64
2021/04/20 01:51:20;;;;;;;34.40;17.57;;;;;;;1.84;60.43;99674.52;1721866;81;21214;-64
2021/04/20 01:53:49;;;;;;;30.00;17.73;;;;;;;1.83;60.47;99674.56;1725332;82;21058;-65
2021/04/20 01:56:16;;;;;;;28.73;17.55;;;;;;;1.76;60.53;99673.77;1721550;82;20985;-64
2021/04/20 01:58:45;;;;;;;33.58;17.10;;;;;;;1.70;60.61;99670.83;1724050;82;20999;-64
2021/04/20 02:01:26;;;;;;;40.55;18.92;;;;;;;1.69;60.72;99677.30;1728757;81;21101;-65
2021/04/20 02:03:53;;;;;;;29.87;17.62;;;;;;;1.68;60.85;99673.00;1731210;81;21387;-64
2021/04/20 02:06:25;;;;;;;36.58;20.17;;;;;;;1.66;60.82;99672.19;1729700;81;21020;-64
2021/04/20 02:08:52;;;;;;;33.70;17.55;;;;;;;1.66;60.89;99672.19;1731845;81;21534;-65
2021/04/20 02:11:22;;;;;;;34.95;17.92;;;;;;;1.62;60.92;99671.80;1728712;81;20982;-64
2021/04/20 02:13:50;;;;;;;33.75;18.25;;;;;;;1.59;61.03;99667.97;1735454;81;20973;-64
2021/04/20 02:16:18;;;;;;;35.95;19.02;;;;;;;1.59;61.09;99674.41;1733897;81;21219;-65
2021/04/20 02:18:48;;;;;;;37.20;18.48;;;;;;;1.56;61.22;99672.27;1728627;81;21055;-64
2021/04/20 02:21:18;;;;;;;39.92;16.85;;;;;;;1.54;61.30;99668.89;1715994;81;20975;-65
2021/04/20 02:23:46;;;;;;;42.80;18.32;;;;;;;1.52;61.33;99670.63;1731834;81;21516;-65
2021/04/20 02:26:18;;;;;;;40.03;18.48;;;;;;;1.51;61.40;99668.92;1732781;81;20951;-65
2021/04/20 02:28:45;;;;;;;36.55;18.27;;;;;;;1.54;61.50;99668.89;1726736;81;21409;-64
2021/04/20 02:31:12;;;;;;;33.95;17.92;;;;;;;1.58;61.54;99670.14;1729672;81;21149;-65
2021/04/20 02:33:42;;;;;;;33.73;16.42;;;;;;;1.64;61.60;99668.77;1700838;82;21015;-64
2021/04/20 02:36:09;;;;;;;29.67;15.93;;;;;;;1.67;61.55;99666.16;1727929;81;21005;-64
2021/04/20 02:38:36;;;;;;;;;;;;;;;1.66;61.59;99672.19;1722060;81;20949;-64
2021/04/20 02:41:05;;;;;;;27.07;14.93;;;;;;;1.60;61.92;99667.09;1731370;81;24375;-65
2021/04/20 02:43:33;;;;;;;30.72;15.40;;;;;;;1.52;61.88;99674.92;1729843;81;21082;-65
2021/04/20 02:46:02;;;;;;;27.85;14.87;;;;;;;1.49;62.02;99671.94;1730973;81;21162;-64
2021/04/20 02:48:30;;;;;;;28.73;14.50;;;;;;;1.49;62.07;99674.95;1734921;81;21135;-64
2021/04/20 02:50:58;;;;;;;28.17;14.28;;;;;;;1.46;62.10;99669.41;1729424;81;20991;-64
2021/04/20 02:53:27;;;;;;;32.58;15.25;;;;;;;1.46;62.20;99673.27;1732895;81;22107;-64
2021/04/20 02:55:56;;;;;;;24.72;13.62;;;;;;;1.53;62.34;99671.47;1729171;81;21059;-64
2021/04/20 02:58:26;;;;;;;28.83;14.40;;;;;;;1.58;62.44;99668.85;1726398;81;21631;-65
2021/04/20 03:01:16;;;;;;;23.95;13.95;;;;;;;1.64;62.41;99671.34;1733559;81;21063;-65
2021/04/20 03:03:43;;;;;;;25.92;13.58;;;;;;;1.65;62.47;99661.02;1734151;81;21025;-64
2021/04/20 03:06:11;;;;;;;22.48;14.03;;;;;;;1.67;62.52;99658.00;1733351;81;21683;-64
2021/04/20 03:08:39;;;;;;;24.45;14.23;;;;;;;1.67;62.63;99666.16;1738577;81;21025;-65
2021/04/20 03:11:14;;;;;;;27.70;14.55;;;;;;;1.71;62.61;99660.09;1737480;81;21131;-64
2021/04/20 03:13:38;;;;;;;26.40;14.90;;;;;;;1.71;62.67;99657.52;1737659;81;21100;-65
2021/04/20 03:16:07;;;;;;;27.70;15.03;;;;;;;1.75;62.76;99656.63;1739740;81;20981;-65
2021/04/20 03:18:34;;;;;;;25.52;14.55;;;;;;;1.81;62.84;99655.26;1736591;81;21213;-65
2021/04/20 03:21:17;;;;;;;28.45;15.35;;;;;;;1.80;62.87;99649.70;1736729;81;20993;-64
2021/04/20 03:23:45;;;;;;;27.58;14.18;;;;;;;1.84;62.92;99650.51;1738936;81;21030;-64
2021/04/20 03:26:37;;;;;;;32.58;16.07;;;;;;;1.83;62.92;99647.09;1738360;81;21160;-64
2021/04/20 03:29:08;;;;;;;25.92;14.70;;;;;;;1.87;63.06;99651.31;1741198;81;20970;-65
2021/04/20 03:31:39;;;;;;;34.85;15.75;;;;;;;1.85;63.08;99642.78;1733806;81;21617;-64
2021/04/20 03:34:38;;;;;;;30.68;16.10;;;;;;;1.86;63.23;99650.91;1741194;81;21072;-65
2021/04/20 03:37:12;;;;;;;35.30;15.40;;;;;;;1.83;63.22;99649.66;1736189;81;21108;-65
2021/04/20 03:39:46;;;;;;;32.83;15.90;;;;;;;1.82;63.36;99649.26;1739493;81;21001;-65
2021/04/20 03:42:33;;;;;;;59.13;19.55;;;;;;;1.86;63.51;99645.75;1738823;81;20995;-65
2021/04/20 03:45:02;;;;;;;;;;;;;;;1.87;63.47;99646.16;1736562;81;21591;-65
2021/04/20 03:47:39;;;;;;;62.98;20.27;;;;;;;1.86;63.69;99639.32;1742019;81;20161;-65
2021/04/20 03:50:20;;;;;;;55.17;18.67;;;;;;;1.85;63.67;99635.05;1737802;81;20990;-65
2021/04/20 03:52:57;;;;;;;26.40;14.28;;;;;;;1.92;63.76;99641.81;1732430;81;21569;-65
2021/04/20 03:55:27;;;;;;;26.65;15.25;;;;;;;2.08;63.72;99633.45;1737595;81;21611;-65
2021/04/20 03:57:56;;;;;;;27.35;14.80;;;;;;;2.18;63.70;99630.28;1732694;81;22405;-65
2021/04/20 04:00:24;;;;;;;31.85;15.45;;;;;;;2.43;63.85;99636.77;1707688;82;21601;-64
2021/04/20 04:02:54;;;;;;;55.98;15.98;;;;;;;2.63;63.73;99642.05;1721004;81;21048;-64
2021/04/20 04:05:27;;;;;;;55.08;18.55;;;;;;;2.74;63.59;99633.70;1705396;82;21243;-64
2021/04/20 04:07:58;;;;;;;63.02;19.40;;;;;;;2.86;63.77;99636.09;1708065;81;21528;-64
2021/04/20 04:10:29;;;;;;;42.60;17.50;;;;;;;3.22;63.97;99628.98;1728907;81;21305;-65
2021/04/20 04:13:03;;;;;;;46.28;16.75;;;;;;;3.65;63.89;99627.72;1727621;81;21590;-65
2021/04/20 04:15:33;;;;;;;46.83;16.93;;;;;;;4.15;63.70;99619.77;1732883;81;21298;-65
2021/04/20 04:18:04;;;;;;;43.90;18.52;;;;;;;4.49;63.36;99626.28;1730942;81;21140;-65
2021/04/20 04:20:31;;;;;;;53.70;17.20;;;;;;;4.70;63.30;99629.66;1731767;81;21041;-65
2021/04/20 04:23:19;;;;;;;54.30;18.40;;;;;;;5.33;63.55;99636.22;1724164;81;21416;-65
2021/04/20 04:26:08;;;;;;;61.50;17.77;;;;;;;5.92;63.19;99632.38;1723650;81;21695;-65
2021/04/20 04:28:37;;;;;;;49.65;18.25;;;;;;;6.71;63.14;99628.20;1733412;81;20974;-65
2021/04/20 04:31:10;;;;;;;54.03;19.52;;;;;;;7.30;62.65;99627.07;1732802;81;21010;-66
2021/04/20 04:33:40;;;;;;;54.33;17.60;;;;;;;7.42;62.12;99620.59;1731007;81;21086;-65
2021/04/20 04:36:09;;;;;;;51.42;18.62;;;;;;;7.56;62.16;99624.83;1710449;81;21100;-65
2021/04/20 04:38:39;;;;;;;58.70;19.90;;;;;;;7.90;61.88;99623.15;1725622;81;21092;-65
2021/04/20 04:41:07;;;;;;;109.15;21.65;;;;;;;8.45;62.11;99622.77;1724933;81;20974;-65
2021/04/20 04:43:35;;;;;;;119.22;23.85;;;;;;;8.90;61.93;99623.09;1730029;81;21057;-66
2021/04/20 04:46:03;;;;;;;144.05;23.83;;;;;;;8.83;61.12;99621.67;1729596;81;21014;-65
2021/04/20 04:48:30;;;;;;;182.47;22.82;;;;;;;8.39;60.97;99620.41;1726706;81;21430;-65
2021/04/20 04:51:01;;;;;;;99.13;20.00;;;;;;;8.07;61.18;99625.11;1732261;81;20933;-65
2021/04/20 04:53:28;;;;;;;91.28;19.00;;;;;;;7.85;61.45;99625.91;1730991;81;21117;-65
2021/04/20 04:55:57;;;;;;;128.23;21.80;;;;;;;7.56;61.55;99624.41;1731133;81;21014;-65
2021/04/20 04:58:27;;;;;;;131.25;21.60;;;;;;;7.29;61.67;99628.83;1709657;81;21182;-65
2021/04/20 05:00:56;;;;;;;139.88;26.48;;;;;;;7.05;61.70;99629.67;1738505;81;21194;-65
2021/04/20 05:03:27;;;;;;;111.97;21.80;;;;;;;6.86;61.94;99631.61;1718120;81;21282;-65
2021/04/20 05:05:56;;;;;;;129.75;22.35;;;;;;;6.79;62.06;99632.70;1741660;81;21081;-65
2021/04/20 05:08:24;;;;;;;79.40;17.87;;;;;;;7.01;62.59;99630.69;1738274;81;22038;-65
2021/04/20 05:10:50;;;;;;;;;;;;;;;7.15;62.05;99631.06;1740987;81;21019;-65
2021/04/20 05:13:20;;;;;;;85.47;19.25;;;;;;;7.05;61.94;99622.73;1739211;80;21422;-66
2021/04/20 05:15:47;;;;;;;114.35;21.12;;;;;;;7.12;62.50;99628.58;1735264;80;21034;-65
2021/04/20 05:18:14;;;;;;;76.42;16.73;;;;;;;7.33;62.15;99627.80;1738624;81;21012;-66
2021/04/20 05:20:45;;;;;;;82.62;17.45;;;;;;;7.38;62.16;99628.49;1739593;81;20979;-67
2021/04/20 05:23:16;;;;;;;90.45;19.55;;;;;;;7.95;62.73;99614.70;1739978;81;20995;-67
2021/04/20 05:25:44;;;;;;;98.35;19.10;;;;;;;8.76;62.72;99611.11;1733148;81;21228;-68
2021/04/20 05:28:12;;;;;;;75.03;20.77;;;;;;;9.62;62.71;99612.98;1737058;81;21066;-67
2021/04/20 05:30:40;;;;;;;76.33;22.10;;;;;;;10.28;61.93;99611.28;1737027;81;20997;-68
2021/04/20 05:33:07;;;;;;;92.05;22.15;;;;;;;10.56;61.08;99615.61;1739783;81;21563;-68
2021/04/20 05:35:34;;;;;;;88.87;25.27;;;;;;;10.25;60.78;99620.97;1719029;81;21104;-68
2021/04/20 05:38:01;;;;;;;90.22;28.15;;;;;;;10.02;61.03;99616.38;1698726;82;21419;-71
2021/04/20 05:40:31;;;;;;;62.17;21.50;;;;;;;10.15;61.72;99615.81;1728239;81;22315;-73
2021/04/20 05:42:58;;;;;;;64.40;21.00;;;;;;;11.05;62.30;99620.55;1700692;82;21567;-70
2021/04/20 05:45:25;;;;;;;41.50;19.07;;;;;;;12.02;61.92;99599.80;1715467;81;20993;-71
2021/04/20 05:47:53;;;;;;;39.18;17.20;;;;;;;12.49;60.99;99611.97;1689038;82;21554;-70
2021/04/20 05:50:28;;;;;;;34.08;15.38;;;;;;;12.60;60.73;99612.20;1704848;82;21242;-69
2021/04/20 05:52:58;;;;;;;48.40;16.40;;;;;;;13.05;60.63;99617.04;1705344;81;21136;-72
2021/04/20 05:55:25;;;;;;;67.05;16.12;;;;;;;13.09;59.85;99609.35;1713316;81;21012;-70
2021/04/20 05:57:54;;;;;;;61.85;16.10;;;;;;;13.21;59.70;99614.33;1727495;81;20973;-71
2021/04/20 06:00:25;;;;;;;74.00;15.55;;;;;;;13.65;59.89;99607.73;1714030;81;21173;-69
2021/04/20 06:02:54;;;;;;;55.60;16.20;;;;;;;13.54;59.02;99608.86;1709178;82;21293;-69
2021/04/20 06:05:24;;;;;;;34.13;13.00;;;;;;;13.07;58.98;99607.28;1718849;81;21060;-69
2021/04/20 06:07:55;;;;;;;46.68;14.20;;;;;;;12.72;58.70;99606.28;1723362;81;21123;-71
2021/04/20 06:10:23;;;;;;;58.35;13.30;;;;;;;12.33;58.92;99616.41;1715153;81;21491;-68
2021/04/20 06:12:50;;;;;;;56.90;13.93;;;;;;;11.94;58.62;99607.22;1721998;81;21111;-68
2021/04/20 06:15:23;;;;;;;73.72;16.32;;;;;;;11.59;58.84;99616.45;1716021;81;21551;-69
2021/04/20 06:17:55;;;;;;;57.85;14.80;;;;;;;11.53;59.25;99611.55;1732375;81;21029;-68
2021/04/20 06:20:24;;;;;;;98.85;17.42;;;;;;;12.12;59.84;99607.97;1740491;80;21048;-69
2021/04/20 06:22:55;;;;;;;166.68;19.67;;;;;;;12.81;59.41;99606.20;1738134;80;20958;-69
2021/04/20 06:25:22;;;;;;;155.07;20.45;;;;;;;13.34;59.08;99602.20;1735082;81;21026;-69
2021/04/20 06:27:50;;;;;;;45.65;19.35;;;;;;;13.55;58.40;99598.73;1737595;81;22477;-69
2021/04/20 06:30:20;;;;;;;48.63;25.90;;;;;;;13.67;57.63;99603.72;1736135;81;21573;-69
2021/04/20 06:32:48;;;;;;;60.40;23.70;;;;;;;13.76;57.93;99597.05;1739433;80;20973;-69
2021/04/20 06:35:19;;;;;;;43.30;23.52;;;;;;;14.35;57.99;99596.34;1738257;81;21504;-69
2021/04/20 06:37:49;;;;;;;43.58;29.40;;;;;;;14.59;56.91;99593.06;1738698;81;21137;-69
2021/04/20 06:40:39;;;;;;;41.08;31.80;;;;;;;14.70;57.02;99588.81;1733320;81;21221;-67
2021/04/20 06:43:10;;;;;;;34.70;18.98;;;;;;;15.16;57.72;99588.80;1737014;81;20990;-68
2021/04/20 06:46:02;;;;;;;27.45;15.35;;;;;;;15.38;56.11;99585.06;1735679;81;20973;-68
2021/04/20 06:48:37;;;;;;;26.12;19.45;;;;;;;15.09;54.71;99588.84;1737728;81;21096;-68
2021/04/20 06:51:20;;;;;;;26.17;15.15;;;;;;;15.00;55.66;99585.89;1797110;77;22377;-67
2021/04/20 06:53:54;;;;;;;25.50;15.10;;;;;;;15.38;55.77;99589.02;1769102;79;21139;-68
2021/04/20 06:56:37;;;;;;;25.72;15.93;;;;;;;15.42;55.81;99583.89;1769085;80;22259;-68
2021/04/20 06:59:29;;;;;;;23.07;15.40;;;;;;;15.59;54.31;99584.51;1770344;80;21685;-67
2021/04/20 07:02:27;;;;;;;27.22;16.40;;;;;;;15.44;53.64;99585.95;1772963;79;21177;-69
2021/04/20 07:05:00;;;;;;;20.68;14.47;;;;;;;15.05;54.27;99584.75;1772797;79;21238;-68
2021/04/20 07:07:56;;;;;;;23.90;14.95;;;;;;;15.09;53.87;99583.58;1765100;80;21241;-68
2021/04/20 07:10:39;;;;;;;36.25;15.28;;;;;;;15.14;54.44;99589.37;1769519;79;22310;-69
2021/04/20 07:13:10;;;;;;;84.95;17.65;;;;;;;15.53;54.86;99574.41;1771260;79;21052;-68
2021/04/20 07:15:51;;;;;;;25.68;14.70;;;;;;;16.04;54.61;99574.31;1773133;79;21092;-68
2021/04/20 07:19:03;;;;;;;26.55;15.28;;;;;;;16.07;53.58;99574.09;1775288;79;21231;-68
2021/04/20 07:22:08;;;;;;;24.82;14.33;;;;;;;15.63;53.09;99580.73;1770729;80;21202;-70
2021/04/20 07:24:47;;;;;;;26.55;13.80;;;;;;;15.32;53.38;99567.08;1766018;79;22751;-67
2021/04/20 07:27:28;;;;;;;17.65;13.25;;;;;;;15.20;53.33;99567.91;1769724;80;21194;-69
2021/04/20 07:30:19;;;;;;;21.02;13.65;;;;;;;15.12;52.25;99575.48;1767074;79;21253;-70
2021/04/20 07:33:11;;;;;;;20.62;12.68;;;;;;;14.96;53.11;99571.28;1766206;80;21315;-70
2021/04/20 07:36:10;;;;;;;18.92;13.18;;;;;;;14.77;52.31;99567.73;1657390;83;21240;-70
2021/04/20 07:38:47;;;;;;;19.77;14.00;;;;;;;14.61;51.68;99567.55;1660425;83;23046;-70
2021/04/20 07:42:02;;;;;;;20.43;12.90;;;;;;;14.44;52.41;99560.27;1653347;84;21245;-68
2021/04/20 07:44:47;;;;;;;20.45;12.50;;;;;;;14.39;52.22;99563.66;1654509;83;21944;-69
2021/04/20 07:47:17;;;;;;;16.67;12.80;;;;;;;14.39;51.11;99562.34;1657682;83;21253;-68
2021/04/20 07:49:55;;;;;;;19.55;12.40;;;;;;;14.32;50.66;99559.77;1651268;82;21235;-69
2021/04/20 07:52:46;;;;;;;22.90;14.10;;;;;;;14.25;50.68;99558.47;1673669;82;21238;-68
2021/04/20 07:55:20;;;;;;;16.40;11.85;;;;;;;14.21;50.77;99553.89;1671526;82;21305;-68
2021/04/20 07:57:54;;;;;;;18.70;12.05;;;;;;;14.44;51.41;99543.19;1674377;84;21650;-68
2021/04/20 08:00:30;;;;;;;18.90;12.98;;;;;;;14.73;49.78;99548.31;1671855;82;21258;-69
2021/04/20 08:03:20;;;;;;;21.37;12.40;;;;;;;14.73;50.43;99545.69;1672380;84;21263;-68
2021/04/20 08:06:02;;;;;;;26.15;12.00;;;;;;;14.78;50.48;99538.34;1673064;84;21965;-69
2021/04/20 08:08:55;;;;;;;17.85;12.03;;;;;;;14.72;49.52;99537.45;1654123;84;21302;-68
2021/04/20 08:11:39;;;;;;;18.23;11.22;;;;;;;14.69;49.20;99541.59;1676486;84;21258;-67
2021/04/20 08:14:17;;;;;;;20.37;12.40;;;;;;;14.82;48.77;99534.58;1772216;79;21231;-67
2021/04/20 08:16:52;;;;;;;16.95;11.75;;;;;;;14.73;49.07;99531.23;1771882;79;21154;-67
2021/04/20 08:19:27;;;;;;;30.05;12.40;;;;;;;14.89;49.70;99529.73;1768467;80;21332;-68
2021/04/20 08:21:57;;;;;;;25.02;11.20;;;;;;;15.15;50.04;99527.93;1767114;80;21220;-67
2021/04/20 08:24:49;;;;;;;20.10;11.30;;;;;;;15.39;49.60;99518.34;1773375;80;21228;-67
2021/04/20 08:27:27;;;;;;;19.32;10.03;;;;;;;15.59;49.32;99522.66;1769961;79;21127;-68
2021/04/20 08:30:00;;;;;;;17.80;10.03;;;;;;;15.64;47.45;99521.38;1765710;79;21208;-68
2021/04/20 08:35:28;;;;;;;16.45;9.45;;;;;;;15.34;47.18;99525.70;1796055;78;22905;-67
2021/04/20 08:38:41;;;;;;;16.50;9.25;;;;;;;15.41;46.66;99521.70;1763200;79;21068;-69
2021/04/20 08:41:44;;;;;;;20.12;8.90;;;;;;;15.53;47.75;99516.53;1761686;79;21620;-68
2021/04/20 08:44:29;;;;;;;9.28;6.90;;;;;;;15.86;48.31;99512.82;1766508;80;21728;-68
2021/04/20 08:47:20;;;;;;;9.93;7.05;;;;;;;16.10;46.76;99505.39;1766336;80;21029;-68
2021/04/20 08:50:05;;;;;;;11.25;6.85;;;;;;;16.31;48.03;99509.08;1761752;79;21018;-68
2021/04/20 08:52:49;;;;;;;10.68;7.42;;;;;;;16.54;47.00;99512.63;1762122;79;21599;-68
2021/04/20 08:55:41;;;;;;;18.15;8.45;;;;;;;16.61;46.50;99510.38;1761471;80;22717;-68
2021/04/20 08:58:43;;;;;;;10.25;7.05;;;;;;;16.52;46.46;99501.83;1765392;79;21168;-67
2021/04/20 09:02:08;;;;;;;12.10;7.15;;;;;;;16.56;45.33;99501.98;1685567;83;21257;-69
2021/04/20 09:04:55;;;;;;;12.30;8.93;;;;;;;16.61;45.54;99499.84;1686473;83;21243;-68
2021/04/20 09:07:44;;;;;;;16.25;9.00;;;;;;;16.72;45.79;99489.31;1826320;77;22620;-67
2021/04/20 09:12:12;;;;;;;16.87;8.60;;;;;;;17.07;43.66;99492.37;1820420;77;22497;-68
2021/04/20 09:14:41;;;;;;;18.42;9.50;;;;;;;16.78;44.95;99491.52;1799499;78;21024;-68
2021/04/20 09:17:12;;;;;;;12.03;7.95;;;;;;;16.85;45.06;99491.03;1796553;78;21290;-69
2021/04/20 09:19:50;;;;;;;11.65;8.28;;;;;;;16.94;44.88;99491.63;1797818;78;21593;-69
2021/04/20 09:22:55;;;;;;;14.07;6.70;;;;;;;16.99;43.99;99490.80;1800700;77;21034;-68
2021/04/20 09:25:27;;;;;;;10.35;6.22;;;;;;;16.85;38.62;99481.32;1796960;78;21020;-69
2021/04/20 09:28:32;;;;;;;12.80;8.08;;;;;;;16.68;42.04;99485.22;1801978;78;21054;-68
2021/04/20 09:31:17;;;;;;;13.13;6.72;;;;;;;16.74;42.91;99484.74;1805290;77;21267;-68
2021/04/20 09:33:55;;;;;;;12.10;7.75;;;;;;;16.90;42.82;99483.61;1801541;77;21078;-68
2021/04/20 09:36:24;;;;;;;7.92;6.50;;;;;;;17.05;42.88;99486.36;1798295;78;21045;-68
2021/04/20 09:38:51;;;;;;;8.53;6.65;;;;;;;17.18;42.53;99483.14;1802848;78;21595;-69
2021/04/20 09:41:43;;;;;;;16.15;7.30;;;;;;;17.00;41.55;99479.31;1801316;78;21912;-69
2021/04/20 09:44:55;;;;;;;9.20;7.25;;;;;;;16.91;40.35;99472.09;1791848;78;21267;-68
2021/04/20 09:47:30;;;;;;;21.55;8.20;;;;;;;17.02;39.23;99473.42;1796968;78;21202;-68
2021/04/20 09:50:24;;;;;;;9.15;6.67;;;;;;;16.96;40.88;99481.81;1796706;78;20951;-67
2021/04/20 09:53:17;;;;;;;11.20;8.08;;;;;;;17.00;40.19;99477.52;1792555;78;21148;-68
2021/04/20 09:56:13;;;;;;;10.55;7.97;;;;;;;17.15;40.98;99476.78;1795421;78;21183;-68
2021/04/20 10:02:03;;;;;;;12.68;6.53;;;;;;;17.32;40.26;99467.54;1837669;76;23881;-68
2021/04/20 10:05:00;;;;;;;11.03;6.10;;;;;;;17.40;40.24;99462.49;1691479;83;21608;-68
2021/04/20 10:08:03;;;;;;;8.73;5.55;;;;;;;17.33;39.62;99464.41;1709977;82;22001;-69
2021/04/20 10:11:10;;;;;;;8.78;6.85;;;;;;;17.37;39.12;99453.98;1799465;78;22925;-67
2021/04/20 10:17:22;;;;;;;8.88;5.53;;;;;;;17.66;39.90;99455.11;1692932;83;22473;-66
2021/04/20 10:20:37;;;;;;;10.98;6.85;;;;;;;17.77;37.90;99454.73;1710504;83;21376;-68
2021/04/20 10:23:19;;;;;;;;;;;;;;;17.71;39.02;99447.31;1723271;81;21046;-69
2021/04/20 10:25:53;;;;;;;8.68;6.17;;;;;;;17.85;39.47;99451.02;1615536;86;20457;-69
2021/04/20 10:28:51;;;;;;;22.73;7.42;;;;;;;17.90;38.49;99451.48;1614931;86;21295;-69
2021/04/20 10:31:38;;;;;;;7.67;5.55;;;;;;;17.87;38.32;99438.05;1768250;78;21483;-69
2021/04/20 10:34:10;;;;;;;9.85;5.50;;;;;;;17.86;36.79;99443.44;1756087;79;21089;-69
2021/04/20 10:36:39;;;;;;;7.92;4.87;;;;;;;17.40;36.65;99440.06;1722560;81;21573;-71
2021/04/20 10:39:09;;;;;;;7.45;5.30;;;;;;;17.52;36.28;99438.23;1750849;80;21606;-71
2021/04/20 10:41:38;;;;;;;7.60;5.28;;;;;;;17.51;37.09;99441.84;1725992;82;21142;-71
2021/04/20 10:44:13;;;;;;;5.78;4.83;;;;;;;17.47;35.53;99437.75;1701866;82;21181;-71
2021/04/20 10:46:43;;;;;;;6.20;4.70;;;;;;;17.26;35.28;99442.13;1727291;82;21422;-72
2021/04/20 10:49:16;;;;;;;11.00;5.15;;;;;;;17.04;36.03;99439.86;1681807;82;21486;-73
2021/04/20 10:51:45;;;;;;;7.25;4.97;;;;;;;16.80;36.39;99437.81;1726665;81;22167;-69
2021/04/20 10:54:15;;;;;;;10.05;5.00;;;;;;;16.85;36.77;99439.13;1722600;82;21128;-71
2021/04/20 10:56:55;;;;;;;11.28;4.92;;;;;;;16.85;36.61;99431.70;1698122;82;21632;-73
2021/04/20 10:59:33;;;;;;;10.28;5.70;;;;;;;16.80;35.92;99433.86;1722885;81;21198;-71
2021/04/20 11:02:04;;;;;;;7.45;5.35;;;;;;;16.66;36.13;99430.45;1724091;81;21308;-70
2021/04/20 11:04:36;;;;;;;13.48;5.47;;;;;;;16.99;36.66;99422.23;1725402;81;21143;-72
2021/04/20 11:07:18;;;;;;;6.80;5.45;;;;;;;17.43;36.65;99417.86;1725149;82;21609;-71
2021/04/20 11:10:01;;;;;;;71.87;9.90;;;;;;;17.64;35.44;99420.55;1698223;82;21597;-71
2021/04/20 11:12:28;;;;;;;11.28;5.67;;;;;;;17.87;36.50;99421.37;1723186;82;21214;-71
2021/04/20 11:14:57;;;;;;;8.70;6.42;;;;;;;17.94;32.61;99417.23;1722438;81;21207;-69
2021/04/20 11:18:06;;;;;;;7.17;5.85;;;;;;;17.86;35.82;99417.03;1721836;82;21601;-69
2021/04/20 11:20:46;;;;;;;10.80;6.58;;;;;;;17.89;33.20;99408.85;1758368;79;21226;-69
2021/04/20 11:23:25;;;;;;;9.20;7.00;;;;;;;17.79;35.22;99413.23;1755782;79;21327;-69
2021/04/20 11:26:02;;;;;;;11.18;7.80;;;;;;;17.96;35.17;99407.39;1760076;80;21441;-68
2021/04/20 11:28:44;;;;;;;20.88;8.33;;;;;;;17.91;35.28;99406.09;1770314;79;21196;-70
2021/04/20 11:31:25;;;;;;;8.68;7.70;;;;;;;17.77;35.40;99411.16;1771116;80;21253;-68
2021/04/20 11:34:15;;;;;;;10.28;7.37;;;;;;;17.63;35.49;99407.00;1764474;79;21114;-66
2021/04/20 11:36:50;;;;;;;12.60;7.92;;;;;;;17.45;35.29;99403.59;1754680;80;21662;-67
2021/04/20 11:39:25;;;;;;;10.58;8.35;;;;;;;17.44;35.39;99399.25;1759243;80;21575;-68
2021/04/20 11:42:24;;;;;;;11.90;8.73;;;;;;;17.62;35.90;99391.66;1748185;81;22191;-67
2021/04/20 11:44:52;;;;;;;11.03;7.53;;;;;;;17.84;35.88;99397.82;1747934;80;21205;-68
2021/04/20 11:47:21;;;;;;;11.63;7.95;;;;;;;17.79;35.75;99387.66;1743002;81;21938;-69
2021/04/20 11:50:08;;;;;;;12.20;7.58;;;;;;;17.87;36.01;99385.23;1759993;80;21565;-69
2021/04/20 11:52:35;;;;;;;10.83;7.60;;;;;;;18.03;36.09;99389.22;1758748;80;21235;-68
2021/04/20 11:55:10;;;;;;;10.20;6.83;;;;;;;18.06;35.68;99389.82;1767433;79;22060;-68
2021/04/20 11:57:40;;;;;;;11.05;6.83;;;;;;;18.01;35.67;99384.08;1711678;82;21248;-69
2021/04/20 12:00:10;;;;;;;9.68;6.60;;;;;;;17.57;35.30;99382.44;1758701;80;21198;-68
2021/04/20 12:02:38;;;;;;;8.45;6.37;;;;;;;17.13;35.31;99392.13;1761867;80;21156;-68
2021/04/20 12:05:12;;;;;;;8.38;6.10;;;;;;;16.92;35.34;99382.81;1760149;79;21573;-68
2021/04/20 12:07:41;;;;;;;8.13;6.55;;;;;;;16.67;35.67;99388.66;1768468;80;22306;-68
2021/04/20 12:10:15;;;;;;;9.25;6.95;;;;;;;16.50;35.84;99391.77;1765074;79;21623;-68
2021/04/20 12:12:43;;;;;;;12.43;6.87;;;;;;;16.39;35.96;99391.75;1761072;79;21605;-68
2021/04/20 12:15:15;;;;;;;12.10;7.40;;;;;;;16.26;36.03;99383.44;1761733;79;21174;-67